Botwood, Canada
Current Conditions -  °F | °C
As of 5:00 AM on Saturday 20 Dec 2014 (Local Time) from CYQX Reporting Station
Broken Clouds Broken Clouds  
Wind Chill: 17°   Ceiling: 4400
Heat Index: 28°   Visibility: 15mi
Dew Point: 25°   Wind: 16mph
Humidity: 86%   Direction: 360°N
Pressure: 29.99"   Gusts: 24mph
Location:  49.15°N, 55.37°W
Report Text: CYQX 200800Z 36014G21KT 15SM FEW008 FEW025 BKN044 M02/M04 A2999 RMK SF1SC1SC5 SLP164
Loading
Personal Weather Stations






























Interactive Weather Map New forecast layout! Learn more

10-Day Weather Forecast

Advertisements
Track Severe Weather on mobile